Poulan, Georgia
Current Conditions -  °F | °C
As of 3:10 PM on Thursday 30 Oct 2014 (Local Time) from KTMA Reporting Station
Clear Clear  
Wind Chill: 71°   Ceiling: Unl
Heat Index: 71°   Visibility: 10mi
Dew Point: 43°   Wind: 9mph
Humidity: 36%   Direction: 320°NW
Pressure: 29.94"   Gusts: NA
Location:  31.51°N, 83.79°W
Report Text: KTMA 301910Z AUTO 32008KT 10SM CLR 22/06 A2994 RMK AO2 T02180060
Loading
Personal Weather Stations






























Interactive Weather Map
Tropical Storm Tracking
New forecast layout! Learn more

10-Day Weather Forecast

Advertisements
Track Severe Weather on mobile